Parkers Prairie, Minnesota
Current Conditions -  °F | °C
As of 5:53 AM on Wednesday 28 Jan 2015 (Local Time) from KAXN Reporting Station
Haze Haze  
Wind Chill: 22°   Ceiling: 500
Heat Index: 32°   Visibility: 6mi
Dew Point: 29°   Wind: 15mph
Humidity: 88%   Direction: 160°SSE
Pressure: 29.87"   Gusts: NA
Location:  46.15°N, 95.33°W
Report Text: KAXN 281153Z AUTO 16013KT 6SM BR OVC005 00/M02 A2987 RMK AO2 SLP134 T00001017 10000 20000 56017
Loading
Personal Weather Stations






























Interactive Weather Map New forecast layout! Learn more

10-Day Weather Forecast

Advertisements
Track Severe Weather on mobile